Time;durP1;ratioP1;P1;durP2;ratioP2;P2;SDS_P1;SDS_P2;PMS_P1;PMS_P2;Temp;Humidity;BMP_temperature;BMP_pressure;BME280_temperature;BME280_humidity;BME280_pressure;Samples;Min_cycle;Max_cycle;Signal;HPM_P1;HPM_P2
2022/11/17 00:05:06;;;;;;;2.60;1.50;;;12.40;99.90;;;;;;4886848;29;20491;-83
2022/11/17 00:08:44;;;;;;;2.23;1.37;;;12.40;99.90;;;;;;4854709;29;20473;-84
2022/11/17 00:15:34;;;;;;;3.43;1.50;;;12.50;99.90;;;;;;4958771;23;20488;-84
2022/11/17 00:22:47;;;;;;;;;;;;;;;;;;;;;
2022/11/17 00:25:37;;;;;;;2.63;1.30;;;12.50;99.90;;;;;;4820419;29;21193;-84
2022/11/17 00:28:23;;;;;;;2.60;1.50;;;12.40;99.90;;;;;;4819097;29;21052;-82
2022/11/17 00:39:26;;;;;;;1.63;1.10;;;12.50;99.90;;;;;;4771708;30;20537;-86
2022/11/17 00:43:02;;;;;;;;;;;;;;;;;;;;;
2022/11/17 00:47:03;;;;;;;3.63;1.23;;;12.40;99.90;;;;;;4745882;30;20485;-83
2022/11/17 00:50:37;;;;;;;1.90;1.23;;;12.60;99.90;;;;;;4731981;30;20446;-84
2022/11/17 00:54:22;;;;;;;;;;;;;;;;;;;;;
2022/11/17 00:57:36;;;;;;;1.60;1.23;;;12.60;99.90;;;;;;4774575;30;20460;-86
2022/11/17 01:01:03;;;;;;;1.53;1.10;;;12.80;99.90;;;;;;4772392;29;20476;-82
2022/11/17 01:04:01;;;;;;;3.80;1.30;;;12.70;99.90;;;;;;4778225;30;20523;-85
2022/11/17 01:07:51;;;;;;;;;;;;;;;;;;;;;
2022/11/17 01:14:48;;;;;;;1.60;1.30;;;12.70;99.90;;;;;;4774124;29;20536;-87
2022/11/17 01:22:14;;;;;;;;;;;;;;;;;;;;;
2022/11/17 01:25:41;;;;;;;;;;;;;;;;;;;;;
2022/11/17 01:32:48;;;;;;;;;;;;;;;;;;;;;
2022/11/17 01:39:41;;;;;;;1.30;1.07;;;12.50;99.90;;;;;;4946867;28;20943;-82
2022/11/17 01:47:00;;;;;;;2.30;1.00;;;12.50;99.90;;;;;;4895518;29;20459;-84
2022/11/17 01:50:23;;;;;;;3.03;1.20;;;12.50;99.90;;;;;;4824384;29;20468;-83
2022/11/17 01:53:52;;;;;;;2.10;1.50;;;12.50;99.90;;;;;;4891275;23;20465;-84
2022/11/17 02:01:54;;;;;;;1.10;0.80;;;12.60;99.90;;;;;;4882646;29;20464;-84
2022/11/17 02:07:59;;;;;;;;;;;;;;;;;;;;;
2022/11/17 02:11:16;;;;;;;3.50;1.93;;;12.30;99.90;;;;;;4981175;28;20478;-84
2022/11/17 02:14:15;;;;;;;1.50;1.00;;;12.40;99.90;;;;;;4962125;28;20562;-85
2022/11/17 02:17:20;;;;;;;2.97;1.20;;;12.50;99.90;;;;;;4967552;28;20466;-83
2022/11/17 02:20:24;;;;;;;2.50;1.10;;;12.40;99.90;;;;;;4963272;28;20596;-85
2022/11/17 02:24:05;;;;;;;;;;;;;;;;;;;;;
2022/11/17 02:31:01;;;;;;;4.63;0.90;;;12.60;99.90;;;;;;4930707;29;20485;-86
2022/11/17 02:34:16;;;;;;;1.47;0.77;;;12.70;99.90;;;;;;4933737;28;20485;-83
2022/11/17 02:37:55;;;;;;;4.63;1.03;;;12.70;99.90;;;;;;4968351;28;20509;-84
2022/11/17 02:41:15;;;;;;;1.60;1.00;;;12.50;99.90;;;;;;4969926;28;20463;-83
2022/11/17 02:44:28;;;;;;;0.73;0.73;;;12.50;99.90;;;;;;4950842;23;20931;-83
2022/11/17 02:48:06;;;;;;;0.80;0.80;;;12.50;99.90;;;;;;4951138;28;20487;-82
2022/11/17 02:51:47;;;;;;;;;;;;;;;;;;;;;
2022/11/17 02:55:19;;;;;;;1.00;0.80;;;12.40;99.90;;;;;;4914532;29;20456;-83
2022/11/17 02:58:29;;;;;;;0.83;0.60;;;12.50;99.90;;;;;;4945037;28;20443;-83
2022/11/17 03:05:03;;;;;;;0.50;0.50;;;12.60;99.90;;;;;;4900254;29;20488;-82
2022/11/17 03:08:44;;;;;;;0.70;0.70;;;12.60;99.90;;;;;;4923633;29;20466;-85
2022/11/17 03:23:26;;;;;;;0.50;0.50;;;12.70;99.90;;;;;;4864754;29;20480;-84
2022/11/17 03:30:24;;;;;;;0.80;0.80;;;12.50;99.90;;;;;;4807423;29;20506;-86
2022/11/17 03:37:28;;;;;;;1.17;0.70;;;12.60;99.90;;;;;;4812897;29;20456;-83
2022/11/17 03:40:47;;;;;;;0.70;0.70;;;12.60;99.90;;;;;;4826832;29;20501;-84
2022/11/17 03:43:54;;;;;;;0.70;0.53;;;12.50;99.90;;;;;;4810974;29;20599;-85
2022/11/17 03:50:39;;;;;;;1.40;0.50;;;12.50;99.90;;;;;;4860456;29;20485;-83
2022/11/17 03:53:30;;;;;;;1.00;0.70;;;12.40;99.90;;;;;;4864197;29;20469;-86
2022/11/17 03:56:58;;;;;;;0.50;0.50;;;12.40;99.90;;;;;;4881405;29;20824;-84
2022/11/17 04:04:31;;;;;;;;;;;;;;;;;;;;;
2022/11/17 04:07:41;;;;;;;0.63;0.63;;;12.40;99.90;;;;;;4812541;29;20465;-84
2022/11/17 04:17:15;;;;;;;0.60;0.60;;;12.30;99.90;;;;;;4935018;28;21024;-85
2022/11/17 04:20:56;;;;;;;0.70;0.60;;;12.30;99.90;;;;;;4961313;28;20541;-83
2022/11/17 04:24:17;;;;;;;;;;;;;;;;;;;;;
2022/11/17 04:34:30;;;;;;;0.80;0.60;;;12.20;99.90;;;;;;4915971;29;20579;-84
2022/11/17 04:37:36;;;;;;;3.57;1.07;;;12.30;99.90;;;;;;4920881;29;20473;-84
2022/11/17 04:41:52;;;;;;;1.17;0.90;;;12.20;99.90;;;;;;4924969;29;20456;-84
2022/11/17 05:00:05;;;;;;;;;;;;;;;;;;;;;
2022/11/17 05:03:08;;;;;;;0.60;0.60;;;12.50;99.90;;;;;;4886422;29;20522;-84
2022/11/17 05:06:05;;;;;;;1.00;0.80;;;12.50;99.90;;;;;;4852743;29;20454;-85
2022/11/17 05:09:36;;;;;;;3.50;0.90;;;12.60;99.90;;;;;;4856104;29;20443;-84
2022/11/17 05:19:37;;;;;;;2.30;1.13;;;12.60;99.90;;;;;;4747048;30;20560;-87
2022/11/17 05:29:08;;;;;;;;;;;;;;;;;;;;;
2022/11/17 05:31:56;;;;;;;0.83;0.83;;;12.40;99.90;;;;;;4767821;29;20480;-83
2022/11/17 05:35:07;;;;;;;3.07;1.30;;;12.50;99.90;;;;;;4721557;30;20464;-83
2022/11/17 05:38:20;;;;;;;2.03;1.10;;;12.50;99.90;;;;;;4756327;30;20453;-83
2022/11/17 05:41:33;;;;;;;;;;;;;;;;;;;;;
2022/11/17 05:44:38;;;;;;;1.43;0.70;;;12.60;99.90;;;;;;4771468;30;21026;-84
2022/11/17 05:47:41;;;;;;;0.77;0.67;;;12.70;99.90;;;;;;4783460;29;20481;-83
2022/11/17 05:54:25;;;;;;;1.77;1.00;;;12.60;99.90;;;;;;4766564;30;20522;-82
2022/11/17 05:57:27;;;;;;;1.73;1.00;;;12.50;99.90;;;;;;4833831;29;20478;-85
2022/11/17 06:04:06;;;;;;;2.40;1.00;;;12.60;99.90;;;;;;4850625;29;20487;-86
2022/11/17 06:07:22;;;;;;;2.53;0.87;;;12.60;99.90;;;;;;4853585;29;20476;-84
2022/11/17 06:14:23;;;;;;;1.33;1.23;;;12.80;99.90;;;;;;4854269;29;20462;-86
2022/11/17 06:18:20;;;;;;;2.77;1.50;;;12.90;99.90;;;;;;4866468;29;20476;-87
2022/11/17 06:22:10;;;;;;;1.80;1.07;;;12.80;99.90;;;;;;4837169;29;20502;-86
2022/11/17 06:25:13;;;;;;;3.57;2.43;;;12.90;99.90;;;;;;4805676;29;20492;-86
2022/11/17 06:31:58;;;;;;;2.07;1.13;;;12.70;99.90;;;;;;4808866;29;20502;-85
2022/11/17 06:35:15;;;;;;;2.20;0.93;;;12.70;99.90;;;;;;4799384;29;20491;-83
2022/11/17 06:41:39;;;;;;;1.80;1.13;;;12.70;99.90;;;;;;4820515;29;20552;-82
2022/11/17 06:44:30;;;;;;;3.63;1.30;;;12.60;99.90;;;;;;4831747;29;20482;-83
2022/11/17 06:50:43;;;;;;;4.57;1.37;;;12.40;99.90;;;;;;4849363;29;20466;-82
2022/11/17 06:53:55;;;;;;;3.17;1.50;;;12.60;99.90;;;;;;4871694;29;20487;-85
2022/11/17 06:57:18;;;;;;;2.33;1.57;;;12.80;99.90;;;;;;4860316;29;20472;-85
2022/11/17 07:00:22;;;;;;;3.30;2.07;;;12.90;99.90;;;;;;4856911;29;20491;-82
2022/11/17 07:03:21;;;;;;;3.63;1.20;;;12.90;99.90;;;;;;4894314;29;20506;-85
2022/11/17 07:06:29;;;;;;;;;;;;;;;;;;;;;
2022/11/17 07:09:20;;;;;;;4.30;1.20;;;12.90;99.90;;;;;;4894332;29;22234;-84
2022/11/17 07:12:15;;;;;;;2.07;0.90;;;12.80;99.90;;;;;;4877212;29;20512;-85
2022/11/17 07:15:24;;;;;;;2.37;1.00;;;12.90;99.90;;;;;;4893555;29;20490;-84
2022/11/17 07:18:10;;;;;;;2.60;1.07;;;12.90;99.90;;;;;;4883148;29;20466;-83
2022/11/17 07:21:05;;;;;;;1.67;0.90;;;12.90;99.90;;;;;;4851335;29;20985;-86
2022/11/17 07:24:28;;;;;;;1.60;0.60;;;12.90;99.90;;;;;;4898713;29;21069;-85
2022/11/17 07:27:48;;;;;;;1.90;0.80;;;12.90;99.90;;;;;;4936193;29;20520;-85
2022/11/17 07:31:26;;;;;;;;;;;;;;;;;;;;;
2022/11/17 07:34:40;;;;;;;1.50;0.97;;;12.90;99.90;;;;;;4884988;29;20486;-84
2022/11/17 07:38:29;;;;;;;1.00;0.80;;;12.80;99.90;;;;;;4887458;29;20543;-85
2022/11/17 07:41:54;;;;;;;2.77;0.80;;;12.90;99.90;;;;;;4880072;29;20469;-83
2022/11/17 07:45:30;;;;;;;0.97;0.80;;;13.00;99.90;;;;;;4856076;29;20902;-82
2022/11/17 07:48:44;;;;;;;1.20;0.60;;;13.00;99.90;;;;;;4804483;29;20478;-85
2022/11/17 07:55:49;;;;;;;;;;;;;;;;;;;;;
2022/11/17 07:59:50;;;;;;;1.17;0.57;;;12.90;99.90;;;;;;4838540;29;20555;-86
2022/11/17 08:03:07;;;;;;;0.83;0.50;;;12.90;99.90;;;;;;4813994;29;20482;-85
2022/11/17 08:06:23;;;;;;;0.70;0.57;;;12.90;99.90;;;;;;4832570;29;20485;-84
2022/11/17 08:13:25;;;;;;;1.67;0.50;;;13.00;99.90;;;;;;4956996;28;20500;-82
2022/11/17 08:20:06;;;;;;;1.23;0.77;;;13.10;99.90;;;;;;4960006;28;20460;-84
2022/11/17 08:23:21;;;;;;;;;;;;;;;;;;;;;
2022/11/17 08:26:50;;;;;;;1.57;0.70;;;13.20;99.90;;;;;;4976315;28;20518;-84
2022/11/17 08:29:40;;;;;;;0.80;0.70;;;13.20;99.90;;;;;;4954997;28;20462;-84
2022/11/17 08:33:03;;;;;;;;;;;;;;;;;;;;;
2022/11/17 08:36:37;;;;;;;;;;;;;;;;;;;;;
2022/11/17 08:39:22;;;;;;;0.80;0.70;;;13.30;99.90;;;;;;4913490;29;20462;-85
2022/11/17 08:42:13;;;;;;;;;;;;;;;;;;;;;
2022/11/17 08:45:16;;;;;;;1.37;1.27;;;13.30;99.90;;;;;;4975728;28;20508;-85
2022/11/17 08:48:06;;;;;;;1.63;1.10;;;13.40;99.90;;;;;;4959041;28;20447;-83
2022/11/17 08:50:50;;;;;;;1.10;1.00;;;13.40;99.90;;;;;;4957480;28;20446;-83
2022/11/17 08:54:23;;;;;;;1.10;0.97;;;13.30;99.90;;;;;;4958318;28;20506;-84
2022/11/17 08:57:41;;;;;;;3.10;1.70;;;13.50;99.90;;;;;;4902684;28;20479;-84
2022/11/17 09:11:03;;;;;;;0.97;0.87;;;13.70;99.80;;;;;;1135466;23;22901;-84
2022/11/17 09:14:07;;;;;;;1.70;1.00;;;13.70;99.90;;;;;;4968775;28;20527;-82
2022/11/17 09:17:07;;;;;;;1.87;0.53;;;13.70;99.60;;;;;;4958460;28;20470;-84
2022/11/17 09:24:02;;;;;;;1.20;0.70;;;13.70;99.80;;;;;;4964545;28;20766;-86
2022/11/17 09:27:27;;;;;;;1.73;0.87;;;13.80;99.70;;;;;;4905229;29;21145;-85
2022/11/17 09:30:25;;;;;;;2.50;1.23;;;14.20;99.60;;;;;;4915193;28;22418;-86
2022/11/17 09:37:09;;;;;;;;;;;;;;;;;;;;;
2022/11/17 09:40:05;;;;;;;1.00;0.70;;;14.40;98.00;;;;;;4954835;28;20472;-84
2022/11/17 10:02:35;;;;;;;;;;;;;;;;;;;;;
2022/11/17 10:10:27;;;;;;;;;;;;;;;;;;;;;
2022/11/17 10:14:07;;;;;;;0.90;0.60;;;14.10;98.10;;;;;;4865086;29;20694;-86
2022/11/17 10:18:09;;;;;;;;;;;;;;;;;;;;;
2022/11/17 10:22:01;;;;;;;2.67;0.70;;;14.30;97.50;;;;;;4870470;29;20431;-87
2022/11/17 10:42:44;;;;;;;;;;;;;;;;;;;;;
2022/11/17 12:02:15;;;;;;;0.77;0.63;;;14.10;95.20;;;;;;4806995;29;20464;-84
2022/11/17 15:51:54;;;;;;;2.47;1.33;;;14.60;95.30;;;;;;2116689;23;21906;-85
2022/11/17 16:27:54;;;;;;;3.60;1.90;;;14.20;97.10;;;;;;4947195;29;20467;-87
2022/11/17 16:31:57;;;;;;;2.17;1.73;;;14.10;97.40;;;;;;4820354;29;20446;-87
2022/11/17 16:35:39;;;;;;;;;;;;;;;;;;;;;
2022/11/17 16:39:23;;;;;;;;;;;;;;;;;;;;;
2022/11/17 16:43:04;;;;;;;;;;;;;;;;;;;;;
2022/11/17 16:46:41;;;;;;;3.30;1.20;;;14.00;98.00;;;;;;4851494;29;20490;-86
2022/11/17 18:51:12;;;;;;;3.50;2.10;;;13.20;99.90;;;;;;5529374;23;20497;-88
2022/11/17 21:16:49;;;;;;;3.00;2.07;;;12.20;99.90;;;;;;4933735;29;20402;-86
2022/11/17 21:24:14;;;;;;;4.57;2.50;;;12.00;99.90;;;;;;4834207;29;20500;-86
2022/11/17 21:27:09;;;;;;;3.57;2.20;;;12.20;99.90;;;;;;4889003;29;20441;-87
2022/11/17 21:31:07;;;;;;;3.73;2.20;;;12.20;99.90;;;;;;4844845;29;20448;-87
2022/11/17 23:08:44;;;;;;;3.07;2.70;;;11.70;99.90;;;;;;3212523;26;20464;-85
2022/11/17 23:11:52;;;;;;;;;;;;;;;;;;;;;
2022/11/17 23:28:40;;;;;;;5.47;2.90;;;11.50;99.90;;;;;;4958443;28;20479;-86
2022/11/17 23:32:05;;;;;;;5.60;2.70;;;11.60;99.90;;;;;;4932522;28;20475;-84
2022/11/17 23:35:52;;;;;;;3.63;2.47;;;11.50;99.90;;;;;;4900417;29;20465;-86
2022/11/17 23:39:11;;;;;;;6.00;2.50;;;11.40;99.90;;;;;;4895721;29;20464;-85
2022/11/17 23:42:25;;;;;;;;;;;;;;;;;;;;;
2022/11/17 23:45:50;;;;;;;;;;;;;;;;;;;;;
2022/11/17 23:52:57;;;;;;;3.63;2.23;;;11.60;99.90;;;;;;4924595;28;20452;-85
2022/11/17 23:56:14;;;;;;;3.33;2.50;;;11.60;99.90;;;;;;4879529;29;20566;-84
2022/11/17 23:59:02;;;;;;;2.33;2.10;;;11.50;99.90;;;;;;4916933;29;20459;-86
